createdAt,value
2024-03-02T00:00:14.427Z,79.85
2024-03-02T00:02:48.000Z,77.80
2024-03-02T00:05:16.311Z,78.88
2024-03-02T00:07:44.120Z,76.45
2024-03-02T00:10:12.515Z,80.90
2024-03-02T00:12:40.272Z,83.80
2024-03-02T00:15:44.561Z,75.93
2024-03-02T00:18:13.666Z,83.88
2024-03-02T00:20:41.424Z,82.70
2024-03-02T00:23:09.787Z,79.60
2024-03-02T00:25:50.407Z,82.53
2024-03-02T00:28:21.237Z,75.30
2024-03-02T00:31:04.622Z,76.50
2024-03-02T00:33:38.412Z,78.45
2024-03-02T00:36:06.344Z,77.75
2024-03-02T00:38:33.403Z,73.22
2024-03-02T00:41:04.965Z,79.57
2024-03-02T00:43:47.477Z,75.00
2024-03-02T00:46:19.929Z,81.40
2024-03-02T00:48:52.591Z,80.22
2024-03-02T00:51:19.267Z,77.75
2024-03-02T00:53:46.126Z,80.10
2024-03-02T00:56:18.160Z,79.63
2024-03-02T00:58:44.744Z,77.72
2024-03-02T01:01:11.382Z,76.63
2024-03-02T01:03:38.486Z,80.20
2024-03-02T01:06:05.584Z,73.60
2024-03-02T01:08:31.994Z,78.38
2024-03-02T01:10:58.453Z,81.15
2024-03-02T01:13:25.016Z,74.85
2024-03-02T01:15:51.752Z,73.95
2024-03-02T01:18:18.300Z,80.75
2024-03-02T01:20:44.704Z,76.45
2024-03-02T01:23:11.143Z,78.13
2024-03-02T01:25:37.646Z,75.45
2024-03-02T01:28:05.101Z,75.90
2024-03-02T01:30:31.851Z,76.40
2024-03-02T01:33:00.245Z,76.18
2024-03-02T01:35:27.762Z,75.38
2024-03-02T01:37:54.727Z,77.93
2024-03-02T01:40:21.514Z,76.80
2024-03-02T01:42:48.040Z,77.00
2024-03-02T01:45:14.591Z,78.35
2024-03-02T01:47:41.196Z,76.38
2024-03-02T01:50:08.725Z,77.95
2024-03-02T01:52:35.161Z,78.38
2024-03-02T01:55:01.974Z,75.72
2024-03-02T01:57:28.499Z,74.15
2024-03-02T01:59:55.091Z,73.95
2024-03-02T02:02:21.641Z,79.38
2024-03-02T02:04:48.179Z,74.82
2024-03-02T02:07:15.525Z,76.93
2024-03-02T02:09:45.368Z,74.18
2024-03-02T02:12:12.270Z,71.78
2024-03-02T02:14:40.226Z,68.90
2024-03-02T02:17:06.652Z,72.10
2024-03-02T02:19:33.062Z,71.60
2024-03-02T02:21:59.573Z,68.43
2024-03-02T02:24:26.103Z,70.35
2024-03-02T02:26:52.534Z,70.88
2024-03-02T02:29:18.944Z,70.00
2024-03-02T02:31:45.368Z,68.97
2024-03-02T02:34:11.822Z,79.03
2024-03-02T02:36:40.292Z,72.22
2024-03-02T02:39:08.932Z,68.93
2024-03-02T02:41:35.361Z,69.47
2024-03-02T02:44:01.765Z,70.30
2024-03-02T02:46:28.191Z,70.15
2024-03-02T02:48:54.929Z,73.43
2024-03-02T02:51:21.446Z,66.28
2024-03-02T02:53:47.900Z,71.72
2024-03-02T02:56:14.348Z,69.43
2024-03-02T02:58:42.469Z,66.78
2024-03-02T03:01:09.020Z,73.90
2024-03-02T03:03:35.520Z,74.13
2024-03-02T03:06:01.980Z,70.60
2024-03-02T03:08:28.408Z,69.38
2024-03-02T03:10:54.923Z,74.18
2024-03-02T03:13:21.383Z,68.60
2024-03-02T03:15:47.821Z,73.13
2024-03-02T03:18:14.341Z,70.43
2024-03-02T03:20:40.828Z,73.90
2024-03-02T03:23:07.293Z,70.78
2024-03-02T03:25:33.720Z,70.57
2024-03-02T03:28:00.188Z,68.78
2024-03-02T03:30:26.840Z,67.78
2024-03-02T03:32:53.261Z,82.43
2024-03-02T03:35:19.715Z,72.75
2024-03-02T03:37:46.159Z,69.93
2024-03-02T03:40:12.557Z,73.40
2024-03-02T03:42:39.386Z,85.85
2024-03-02T03:45:09.458Z,73.07
2024-03-02T03:47:36.044Z,73.22
2024-03-02T03:50:05.646Z,74.53
2024-03-02T03:52:32.107Z,72.28
2024-03-02T03:54:58.619Z,77.70
2024-03-02T03:57:25.186Z,74.07
2024-03-02T03:59:51.786Z,71.40
2024-03-02T04:02:18.199Z,77.97
2024-03-02T04:04:44.837Z,78.63
2024-03-02T04:07:11.455Z,76.03
2024-03-02T04:09:37.976Z,73.82
2024-03-02T04:12:04.677Z,76.72
2024-03-02T04:14:31.129Z,75.13
2024-03-02T04:16:57.522Z,76.05
2024-03-02T04:19:24.253Z,78.30
2024-03-02T04:21:50.686Z,76.43
2024-03-02T04:24:17.132Z,75.63
2024-03-02T04:26:43.564Z,79.90
2024-03-02T04:29:10.001Z,71.97
2024-03-02T04:31:36.473Z,77.57
2024-03-02T04:34:03.000Z,76.05
2024-03-02T04:36:29.484Z,79.95
2024-03-02T04:38:56.082Z,78.18
2024-03-02T04:41:22.493Z,80.55
2024-03-02T04:43:48.921Z,85.25
2024-03-02T04:46:15.340Z,80.03
2024-03-02T04:48:41.816Z,79.25
2024-03-02T04:51:08.278Z,80.30
2024-03-02T04:53:34.676Z,77.35
2024-03-02T04:56:21.069Z,84.30
2024-03-02T04:58:47.872Z,81.22
2024-03-02T05:01:14.420Z,82.22
2024-03-02T05:03:40.960Z,82.07
2024-03-02T05:06:07.414Z,82.55
2024-03-02T05:08:35.043Z,81.25
2024-03-02T05:11:21.515Z,83.70
2024-03-02T05:13:47.949Z,81.60
2024-03-02T05:16:14.369Z,81.28
2024-03-02T05:18:40.970Z,82.00
2024-03-02T05:21:07.420Z,83.28
2024-03-02T05:23:34.340Z,82.05
2024-03-02T05:26:00.757Z,81.82
2024-03-02T05:28:27.246Z,81.20
2024-03-02T05:30:53.687Z,84.53
2024-03-02T05:33:23.561Z,76.53
2024-03-02T05:35:52.836Z,85.80
2024-03-02T05:38:19.395Z,87.30
2024-03-02T05:40:45.982Z,80.25
2024-03-02T05:43:12.835Z,74.72
2024-03-02T05:45:40.502Z,80.00
2024-03-02T05:48:10.413Z,81.95
2024-03-02T05:50:36.935Z,80.43
2024-03-02T05:53:03.361Z,79.15
2024-03-02T05:55:29.762Z,79.72
2024-03-02T05:58:08.300Z,77.95
2024-03-02T06:00:34.880Z,75.30
2024-03-02T06:03:01.413Z,71.47
2024-03-02T06:05:28.146Z,68.63
2024-03-02T06:07:54.567Z,68.88
2024-03-02T06:10:21.904Z,67.18
2024-03-02T06:12:48.434Z,72.57
2024-03-02T06:15:14.977Z,68.65
2024-03-02T06:17:41.406Z,71.53
2024-03-02T06:20:09.598Z,75.30
2024-03-02T06:22:36.289Z,75.05
2024-03-02T06:25:02.788Z,75.28
2024-03-02T06:27:29.323Z,73.63
2024-03-02T06:29:55.991Z,75.25
2024-03-02T06:32:22.419Z,71.93
2024-03-02T06:34:48.832Z,75.43
2024-03-02T06:37:17.026Z,73.22
2024-03-02T06:39:44.338Z,71.30
2024-03-02T06:42:11.082Z,75.72
2024-03-02T06:44:37.517Z,75.70
2024-03-02T06:47:03.985Z,73.10
2024-03-02T06:49:30.408Z,78.30
2024-03-02T06:51:56.877Z,72.22
2024-03-02T06:54:23.429Z,70.55
2024-03-02T06:56:50.051Z,74.18
2024-03-02T06:59:16.510Z,73.22
2024-03-02T07:01:44.549Z,74.75
2024-03-02T07:04:11.018Z,75.63
2024-03-02T07:06:37.435Z,70.53
2024-03-02T07:09:04.287Z,72.80
2024-03-02T07:11:30.750Z,70.05
2024-03-02T07:13:57.270Z,72.75
2024-03-02T07:16:30.875Z,67.95
2024-03-02T07:18:57.984Z,71.38
2024-03-02T07:21:24.674Z,68.68
2024-03-02T07:23:51.326Z,73.82
2024-03-02T07:28:50.117Z,64.07
2024-03-02T07:31:16.604Z,68.95
2024-03-02T07:33:45.228Z,78.93
2024-03-02T07:36:11.959Z,83.47
2024-03-02T07:38:38.425Z,78.35
2024-03-02T07:41:05.654Z,80.93
2024-03-02T07:43:34.254Z,76.15
2024-03-02T07:46:00.736Z,68.63
2024-03-02T07:48:28.117Z,66.35
2024-03-02T07:50:54.579Z,72.78
2024-03-02T07:53:20.990Z,67.45
2024-03-02T07:55:47.389Z,65.15
2024-03-02T07:58:14.199Z,66.53
2024-03-02T08:00:41.575Z,61.65
2024-03-02T08:03:08.378Z,60.97
2024-03-02T08:05:34.847Z,61.50
2024-03-02T08:08:01.287Z,62.42
2024-03-02T08:10:27.675Z,61.15
2024-03-02T08:12:54.139Z,61.85
2024-03-02T08:15:20.666Z,60.67
2024-03-02T08:17:50.567Z,63.65
2024-03-02T08:20:17.105Z,60.63
2024-03-02T08:22:43.719Z,67.90
2024-03-02T08:25:10.765Z,63.97
2024-03-02T08:27:37.540Z,61.33
2024-03-02T08:30:07.618Z,66.93
2024-03-02T08:32:34.320Z,70.07
2024-03-02T08:35:00.912Z,71.13
2024-03-02T08:37:27.782Z,71.95
2024-03-02T08:39:54.433Z,68.57
2024-03-02T08:42:20.997Z,71.60
2024-03-02T08:44:47.626Z,72.53
2024-03-02T08:47:14.524Z,70.50
2024-03-02T08:49:40.965Z,72.45
2024-03-02T08:52:07.428Z,69.15
2024-03-02T08:54:35.208Z,68.28
2024-03-02T08:57:01.693Z,70.20
2024-03-02T08:59:28.948Z,69.05
2024-03-02T09:01:55.662Z,69.25
2024-03-02T09:04:25.327Z,65.00
2024-03-02T09:06:53.439Z,67.55
2024-03-02T09:09:19.907Z,66.38
2024-03-02T09:11:47.515Z,65.72
2024-03-02T09:14:16.025Z,59.17
2024-03-02T09:16:43.036Z,57.35
2024-03-02T09:19:10.732Z,52.55
2024-03-02T09:21:37.300Z,58.50
2024-03-02T09:24:04.704Z,54.83
2024-03-02T09:26:31.176Z,46.33
2024-03-02T09:28:57.607Z,47.15
2024-03-02T09:31:24.024Z,47.25
2024-03-02T09:33:50.589Z,43.90
2024-03-02T09:36:21.740Z,42.75
2024-03-02T09:38:48.241Z,43.33
2024-03-02T09:41:15.970Z,43.95
2024-03-02T09:43:42.510Z,41.50
2024-03-02T09:46:12.281Z,39.53
2024-03-02T09:48:39.365Z,41.13
2024-03-02T09:51:06.738Z,40.03
2024-03-02T09:53:34.739Z,33.65
2024-03-02T09:56:01.806Z,37.38
2024-03-02T09:58:28.286Z,33.88
2024-03-02T10:00:54.939Z,35.33
2024-03-02T10:03:23.467Z,33.03
2024-03-02T10:05:49.927Z,33.40
2024-03-02T10:08:16.451Z,37.95
2024-03-02T10:10:45.520Z,36.15
2024-03-02T10:13:13.433Z,35.55
2024-03-02T10:15:42.168Z,38.58
2024-03-02T10:18:13.483Z,39.53
2024-03-02T10:20:41.238Z,39.88
2024-03-02T10:23:18.486Z,42.30
2024-03-02T10:25:52.068Z,36.75
2024-03-02T10:28:24.400Z,38.22
2024-03-02T10:30:52.527Z,39.55
2024-03-02T10:33:19.083Z,38.88
2024-03-02T10:35:45.770Z,39.50
2024-03-02T10:38:12.728Z,40.55
2024-03-02T10:40:39.309Z,36.10
2024-03-02T10:43:07.143Z,39.28
2024-03-02T10:45:34.188Z,38.45
2024-03-02T10:48:03.198Z,35.83
2024-03-02T10:50:30.166Z,39.90
2024-03-02T10:52:56.561Z,37.60
2024-03-02T10:55:23.146Z,32.33
2024-03-02T10:57:53.368Z,29.42
2024-03-02T11:00:25.852Z,31.98
2024-03-02T11:02:57.186Z,26.85
2024-03-02T11:05:28.932Z,27.67
2024-03-02T11:08:02.194Z,25.30
2024-03-02T11:10:37.751Z,23.15
2024-03-02T11:13:11.074Z,17.80
2024-03-02T11:15:38.523Z,19.77
2024-03-02T11:18:09.795Z,18.27
2024-03-02T11:20:39.782Z,20.10
2024-03-02T11:23:08.001Z,19.95
2024-03-02T11:25:34.753Z,22.50
2024-03-02T11:28:03.725Z,17.10
2024-03-02T11:30:33.605Z,13.07
2024-03-02T11:33:11.305Z,14.00
2024-03-02T11:35:43.935Z,13.52
2024-03-02T11:38:10.745Z,14.90
2024-03-02T11:40:37.315Z,15.23
2024-03-02T11:43:06.356Z,16.00
2024-03-02T11:45:34.716Z,14.13
2024-03-02T11:48:01.879Z,16.23
2024-03-02T11:50:34.466Z,16.92
2024-03-02T11:53:01.150Z,14.38
2024-03-02T11:55:28.063Z,15.82
2024-03-02T11:57:54.532Z,16.02
2024-03-02T12:00:21.551Z,14.23
2024-03-02T12:03:01.802Z,18.23
2024-03-02T12:05:28.859Z,16.33
2024-03-02T12:08:03.093Z,15.23
2024-03-02T12:10:30.461Z,14.52
2024-03-02T12:13:00.171Z,15.43
2024-03-02T12:15:31.835Z,17.00
2024-03-02T12:18:02.245Z,16.75
2024-03-02T12:20:30.594Z,16.30
2024-03-02T12:23:00.905Z,18.60
2024-03-02T12:25:38.595Z,16.17
2024-03-02T12:28:08.268Z,19.23
2024-03-02T12:30:36.874Z,15.30
2024-03-02T12:33:03.635Z,15.05
2024-03-02T12:35:33.035Z,18.13
2024-03-02T12:37:59.615Z,19.33
2024-03-02T12:40:35.120Z,20.58
2024-03-02T12:43:02.068Z,23.45
2024-03-02T12:45:28.707Z,24.48
2024-03-02T12:47:55.310Z,23.10
2024-03-02T12:50:22.647Z,25.48
2024-03-02T12:52:56.103Z,24.55
2024-03-02T12:55:23.981Z,26.58
2024-03-02T12:57:52.457Z,22.13
2024-03-02T13:00:20.662Z,22.15
2024-03-02T13:02:48.620Z,23.83
2024-03-02T13:05:15.147Z,23.95
2024-03-02T13:07:42.101Z,23.88
2024-03-02T13:10:11.425Z,25.63
2024-03-02T13:15:06.534Z,24.83
2024-03-02T13:17:38.071Z,24.05
2024-03-02T13:20:09.474Z,24.05
2024-03-02T13:22:36.408Z,22.70
2024-03-02T13:25:05.361Z,27.77
2024-03-02T13:27:35.823Z,24.48
2024-03-02T13:30:10.042Z,24.90
2024-03-02T13:32:36.586Z,26.48
2024-03-02T13:35:04.149Z,22.23
2024-03-02T13:37:30.607Z,23.95
2024-03-02T13:39:57.058Z,23.10
2024-03-02T13:42:23.759Z,23.13
2024-03-02T13:44:52.251Z,25.48
2024-03-02T13:47:18.890Z,24.73
2024-03-02T13:49:47.333Z,25.40
2024-03-02T13:52:18.405Z,26.25
2024-03-02T13:54:46.917Z,27.83
2024-03-02T13:57:18.071Z,23.05
2024-03-02T13:59:45.015Z,23.73
2024-03-02T14:02:12.974Z,24.65
2024-03-02T14:04:42.098Z,26.27
2024-03-02T14:07:09.252Z,23.73
2024-03-02T14:09:36.255Z,23.55
2024-03-02T14:12:03.497Z,24.83
2024-03-02T14:14:29.974Z,25.38
2024-03-02T14:17:06.703Z,22.73
2024-03-02T14:19:33.425Z,27.33
2024-03-02T14:22:00.318Z,26.45
2024-03-02T14:24:27.610Z,27.63
2024-03-02T14:26:58.413Z,30.05
2024-03-02T14:29:29.956Z,30.27
2024-03-02T14:31:56.459Z,31.23
2024-03-02T14:34:23.372Z,29.52
2024-03-02T14:36:49.989Z,29.92
2024-03-02T14:39:16.442Z,28.15
2024-03-02T14:41:42.860Z,30.67
2024-03-02T14:44:09.286Z,26.75
2024-03-02T14:46:35.984Z,26.92
2024-03-02T14:49:02.747Z,22.05
2024-03-02T14:51:31.206Z,29.75
2024-03-02T14:53:57.659Z,25.05
2024-03-02T14:56:24.086Z,27.48
2024-03-02T14:58:52.114Z,28.38
2024-03-02T15:01:19.048Z,31.80
2024-03-02T15:03:45.634Z,30.73
2024-03-02T15:06:12.113Z,25.45
2024-03-02T15:08:38.552Z,25.95
2024-03-02T15:11:05.135Z,28.55
2024-03-02T15:13:31.775Z,25.98
2024-03-02T15:15:58.307Z,25.75
2024-03-02T15:18:25.266Z,29.13
2024-03-02T15:20:51.895Z,22.52
2024-03-02T15:23:18.354Z,25.95
2024-03-02T15:25:44.810Z,27.38
2024-03-02T15:28:11.289Z,25.13
2024-03-02T15:30:37.804Z,23.55
2024-03-02T15:33:04.806Z,22.65
2024-03-02T15:35:31.270Z,23.05
2024-03-02T15:37:57.694Z,23.23
2024-03-02T15:40:24.144Z,24.52
2024-03-02T15:42:50.667Z,23.60
2024-03-02T15:45:17.782Z,25.42
2024-03-02T15:47:44.633Z,26.02
2024-03-02T15:50:11.091Z,24.92
2024-03-02T15:52:37.606Z,25.40
2024-03-02T15:55:06.736Z,28.45
2024-03-02T15:57:34.409Z,25.25
2024-03-02T16:00:00.820Z,23.27
2024-03-02T16:02:27.252Z,28.75
2024-03-02T16:04:53.729Z,22.88
2024-03-02T16:07:20.219Z,27.65
2024-03-02T16:09:46.701Z,23.92
2024-03-02T16:12:13.514Z,27.65
2024-03-02T16:14:39.938Z,26.83
2024-03-02T16:17:07.425Z,28.65
2024-03-02T16:19:35.377Z,25.42
2024-03-02T16:22:01.971Z,25.70
2024-03-02T16:24:28.599Z,28.45
2024-03-02T16:26:55.121Z,28.67
2024-03-02T16:29:21.537Z,26.45
2024-03-02T16:31:47.931Z,26.75
2024-03-02T16:34:14.491Z,25.92
2024-03-02T16:36:41.917Z,25.90
2024-03-02T16:39:09.952Z,27.85
2024-03-02T16:41:36.657Z,26.25
2024-03-02T16:44:06.673Z,28.15
2024-03-02T16:46:33.497Z,27.38
2024-03-02T16:49:00.095Z,27.55
2024-03-02T16:51:26.615Z,29.50
2024-03-02T16:53:53.031Z,26.00
2024-03-02T16:56:19.497Z,26.02
2024-03-02T16:58:45.908Z,27.58
2024-03-02T17:01:12.408Z,25.92
2024-03-02T17:03:38.899Z,27.75
2024-03-02T17:06:05.554Z,24.27
2024-03-02T17:08:32.019Z,24.63
2024-03-02T17:10:58.579Z,25.73
2024-03-02T17:13:25.328Z,32.03
2024-03-02T17:15:51.784Z,27.42
2024-03-02T17:18:18.477Z,29.17
2024-03-02T17:20:45.105Z,28.85
2024-03-02T17:23:11.586Z,27.08
2024-03-02T17:25:38.099Z,29.63
2024-03-02T17:28:19.830Z,27.60
2024-03-02T17:33:12.763Z,29.83
2024-03-02T17:35:39.236Z,27.35
2024-03-02T17:38:05.648Z,31.33
2024-03-02T17:40:32.769Z,33.15
2024-03-02T17:42:59.215Z,28.48
2024-03-02T17:45:25.838Z,32.08
2024-03-02T17:47:52.296Z,29.83
2024-03-02T17:50:18.714Z,33.20
2024-03-02T17:52:45.773Z,28.15
2024-03-02T17:55:12.324Z,32.10
2024-03-02T17:57:38.836Z,29.10
2024-03-02T18:00:06.492Z,33.47
2024-03-02T18:02:34.631Z,30.02
2024-03-02T18:05:01.039Z,31.63
2024-03-02T18:07:27.480Z,33.30
2024-03-02T18:09:53.979Z,33.83
2024-03-02T18:12:20.522Z,30.45
2024-03-02T18:14:47.006Z,32.20
2024-03-02T18:17:13.722Z,34.78
2024-03-02T18:19:40.189Z,35.45
2024-03-02T18:22:06.823Z,31.52
2024-03-02T18:24:36.491Z,33.92
2024-03-02T18:27:04.530Z,36.22
2024-03-02T18:29:30.958Z,35.22
2024-03-02T18:31:58.793Z,39.22
2024-03-02T18:34:25.290Z,35.53
2024-03-02T18:36:52.304Z,33.50
2024-03-02T18:39:19.381Z,35.17
2024-03-02T18:41:45.800Z,33.53
2024-03-02T18:44:12.233Z,35.50
2024-03-02T18:46:38.683Z,33.80
2024-03-02T18:49:05.145Z,34.72
2024-03-02T18:51:31.668Z,36.40
2024-03-02T18:53:58.097Z,38.95
2024-03-02T18:56:24.564Z,39.58
2024-03-02T18:58:51.022Z,38.90
2024-03-02T19:01:17.503Z,37.72
2024-03-02T19:03:44.362Z,33.97
2024-03-02T19:06:17.375Z,37.95
2024-03-02T19:08:44.229Z,36.25
2024-03-02T19:11:15.224Z,37.63
2024-03-02T19:13:42.582Z,39.38
2024-03-02T19:16:13.516Z,41.78
2024-03-02T19:18:41.011Z,38.10
2024-03-02T19:21:08.266Z,40.67
2024-03-02T19:23:40.399Z,44.25
2024-03-02T19:26:12.584Z,44.25
2024-03-02T19:28:39.011Z,47.25
2024-03-02T19:31:05.487Z,42.72
2024-03-02T19:33:32.005Z,41.25
2024-03-02T19:35:58.483Z,40.47
2024-03-02T19:38:26.308Z,37.17
2024-03-02T19:40:53.001Z,40.25
2024-03-02T19:43:19.550Z,42.63
2024-03-02T19:45:46.051Z,44.13
2024-03-02T19:48:12.686Z,43.33
2024-03-02T19:50:40.903Z,39.15
2024-03-02T19:53:07.327Z,42.38
2024-03-02T19:55:33.790Z,40.03
2024-03-02T19:58:00.277Z,40.58
2024-03-02T20:00:26.717Z,41.22
2024-03-02T20:02:53.160Z,37.97
2024-03-02T20:05:19.574Z,40.03
2024-03-02T20:07:46.101Z,46.35
2024-03-02T20:10:13.877Z,40.55
2024-03-02T20:12:40.510Z,39.70
2024-03-02T20:15:07.518Z,41.58
2024-03-02T20:17:34.031Z,38.63
2024-03-02T20:20:00.507Z,40.92
2024-03-02T20:22:26.921Z,43.38
2024-03-02T20:24:53.367Z,43.47
2024-03-02T20:27:20.613Z,41.03
2024-03-02T20:29:47.021Z,37.35
2024-03-02T20:32:13.574Z,39.42
2024-03-02T20:34:39.987Z,36.28
2024-03-02T20:37:06.420Z,39.95
2024-03-02T20:39:33.078Z,43.22
2024-03-02T20:41:59.557Z,40.30
2024-03-02T20:44:27.123Z,39.85
2024-03-02T20:46:54.289Z,42.90
2024-03-02T20:49:21.139Z,43.08
2024-03-02T20:51:47.778Z,40.92
2024-03-02T20:54:14.236Z,45.92
2024-03-02T20:56:43.744Z,42.08
2024-03-02T20:59:10.180Z,43.53
2024-03-02T21:01:37.203Z,40.70
2024-03-02T21:04:03.967Z,54.05
2024-03-02T21:06:30.731Z,41.13
2024-03-02T21:08:57.268Z,41.60
2024-03-02T21:11:23.835Z,44.88
2024-03-02T21:13:50.482Z,40.28
2024-03-02T21:16:17.708Z,45.38
2024-03-02T21:18:44.607Z,45.90
2024-03-02T21:21:14.306Z,43.08
2024-03-02T21:23:40.729Z,43.38
2024-03-02T21:26:07.126Z,49.17
2024-03-02T21:28:33.556Z,47.53
2024-03-02T21:31:00.212Z,42.72
2024-03-02T21:33:29.714Z,47.03
2024-03-02T21:38:22.528Z,46.00
2024-03-02T21:40:50.019Z,44.10
2024-03-02T21:43:16.597Z,48.15
2024-03-02T21:45:43.760Z,45.92
2024-03-02T21:48:10.269Z,46.15
2024-03-02T21:50:36.735Z,46.13
2024-03-02T21:53:04.702Z,44.88
2024-03-02T21:55:31.123Z,45.63
2024-03-02T21:57:58.079Z,48.15
2024-03-02T22:00:25.240Z,46.95
2024-03-02T22:02:51.660Z,46.67
2024-03-02T22:05:18.131Z,48.22
2024-03-02T22:07:44.545Z,44.78
2024-03-02T22:10:11.021Z,49.05
2024-03-02T22:12:37.460Z,47.47
2024-03-02T22:15:04.230Z,47.05
2024-03-02T22:17:30.664Z,52.15
2024-03-02T22:19:57.487Z,48.92
2024-03-02T22:22:24.039Z,50.25
2024-03-02T22:24:50.482Z,48.65
2024-03-02T22:27:17.057Z,50.30
2024-03-02T22:29:43.477Z,47.13
2024-03-02T22:32:09.872Z,50.83
2024-03-02T22:34:36.262Z,49.35
2024-03-02T22:37:02.734Z,49.38
2024-03-02T22:39:29.240Z,54.97
2024-03-02T22:41:56.121Z,47.75
2024-03-02T22:44:22.699Z,48.00
2024-03-02T22:46:49.094Z,49.55
2024-03-02T22:49:15.616Z,49.17
2024-03-02T22:51:42.251Z,50.67
2024-03-02T22:54:08.725Z,50.03
2024-03-02T22:56:35.130Z,48.30
2024-03-02T22:59:02.061Z,48.72
2024-03-02T23:01:28.611Z,49.00
2024-03-02T23:03:55.169Z,49.28
2024-03-02T23:06:21.630Z,50.65
2024-03-02T23:08:48.107Z,53.65
2024-03-02T23:11:14.608Z,47.80
2024-03-02T23:13:41.116Z,48.72
2024-03-02T23:16:07.622Z,51.10
2024-03-02T23:18:34.157Z,49.08
2024-03-02T23:21:00.599Z,49.85
2024-03-02T23:23:27.024Z,48.30
2024-03-02T23:25:53.429Z,50.00
2024-03-02T23:28:19.936Z,52.13
2024-03-02T23:30:47.056Z,46.25
2024-03-02T23:33:13.554Z,51.65
2024-03-02T23:35:39.976Z,48.55
2024-03-02T23:38:06.751Z,53.88
2024-03-02T23:40:51.566Z,47.42
2024-03-02T23:43:18.102Z,49.08
2024-03-02T23:45:44.609Z,48.80
2024-03-02T23:48:11.611Z,46.88
2024-03-02T23:50:38.096Z,46.75
2024-03-02T23:53:04.820Z,48.38
2024-03-02T23:55:42.747Z,50.90
2024-03-02T23:58:17.659Z,47.40
